TimeCDT,TemperatureF,Dew PointF,Humidity,Sea Level PressureIn,VisibilityMPH,Wind Direction,Wind SpeedMPH,Gust SpeedMPH,PrecipitationIn,Events,Conditions,WindDirDegrees,DateUTC
12:15 AM,56.3,51.3,83,30.08,10.0,East,4.6,-,N/A,,Clear,90,2013-09-27 05:15:00
12:35 AM,56.3,51.8,85,30.08,10.0,East,3.5,-,N/A,,Clear,90,2013-09-27 05:35:00
12:55 AM,55.6,51.6,87,30.08,10.0,Calm,Calm,-,N/A,,Clear,0,2013-09-27 05:55:00
1:15 AM,54.7,50.9,87,30.08,10.0,ENE,4.6,-,N/A,,Clear,60,2013-09-27 06:15:00
1:35 AM,53.6,50.5,89,30.09,10.0,ENE,3.5,-,N/A,,Clear,60,2013-09-27 06:35:00
1:55 AM,54.7,51.8,90,30.09,10.0,Calm,Calm,-,N/A,,Clear,0,2013-09-27 06:55:00
2:15 AM,52.7,49.3,88,30.10,10.0,Calm,Calm,-,N/A,,Clear,0,2013-09-27 07:15:00
2:35 AM,50.4,47.5,90,30.10,7.0,Calm,Calm,-,N/A,,Clear,0,2013-09-27 07:35:00
2:55 AM,51.1,48.6,91,30.10,7.0,NE,3.5,-,N/A,,Clear,40,2013-09-27 07:55:00
3:15 AM,49.6,47.3,92,30.10,7.0,NE,4.6,-,N/A,,Clear,50,2013-09-27 08:15:00
3:35 AM,51.4,49.3,92,30.10,7.0,Calm,Calm,-,N/A,,Clear,0,2013-09-27 08:35:00
3:55 AM,50.9,48.6,92,30.10,7.0,ENE,5.8,-,N/A,,Clear,70,2013-09-27 08:55:00
4:15 AM,50.4,48.2,92,30.10,7.0,ENE,3.5,-,N/A,,Clear,60,2013-09-27 09:15:00
4:35 AM,50.2,48.0,92,30.10,7.0,ENE,3.5,-,N/A,,Clear,60,2013-09-27 09:35:00
4:55 AM,49.6,47.7,93,30.11,7.0,NE,4.6,-,N/A,,Clear,50,2013-09-27 09:55:00
5:15 AM,50.9,48.9,93,30.11,5.0,NNE,3.5,-,N/A,,Clear,30,2013-09-27 10:15:00
5:35 AM,50.0,47.8,92,30.12,5.0,NE,4.6,-,N/A,,Clear,50,2013-09-27 10:35:00
5:55 AM,48.7,46.8,93,30.12,5.0,East,4.6,-,N/A,,Clear,80,2013-09-27 10:55:00
6:15 AM,48.7,46.9,93,30.13,5.0,ENE,3.5,-,N/A,,Clear,70,2013-09-27 11:15:00
6:35 AM,48.7,46.8,93,30.13,5.0,ENE,4.6,-,N/A,,Clear,70,2013-09-27 11:35:00
6:55 AM,49.1,47.3,93,30.14,3.0,ENE,4.6,-,N/A,,Clear,70,2013-09-27 11:55:00
7:15 AM,49.5,47.7,94,30.14,3.0,ENE,4.6,-,N/A,,Clear,70,2013-09-27 12:15:00
7:35 AM,51.6,49.8,94,30.15,4.0,East,3.5,-,N/A,,Clear,80,2013-09-27 12:35:00
7:55 AM,53.4,50.9,91,30.15,5.0,Calm,Calm,-,N/A,,Clear,0,2013-09-27 12:55:00
8:15 AM,55.4,52.0,88,30.15,7.0,East,3.5,-,N/A,,Clear,90,2013-09-27 13:15:00
8:35 AM,59.0,52.5,79,30.15,10.0,SE,3.5,-,N/A,,Clear,130,2013-09-27 13:35:00
8:55 AM,60.3,51.6,73,30.15,10.0,SE,4.6,-,N/A,,Clear,130,2013-09-27 13:55:00
9:15 AM,61.0,51.8,72,30.16,10.0,SSE,3.5,-,N/A,,Clear,150,2013-09-27 14:15:00
9:35 AM,63.0,52.9,70,30.16,10.0,ESE,3.5,-,N/A,,Clear,110,2013-09-27 14:35:00
9:55 AM,65.1,53.1,65,30.16,10.0,SE,4.6,-,N/A,,Clear,130,2013-09-27 14:55:00
10:15 AM,67.8,54.0,61,30.15,10.0,SE,5.8,-,N/A,,Clear,140,2013-09-27 15:15:00
10:35 AM,69.8,54.3,58,30.15,10.0,SSE,5.8,-,N/A,,Clear,160,2013-09-27 15:35:00
10:55 AM,72.7,54.9,53,30.15,10.0,SE,6.9,-,N/A,,Clear,130,2013-09-27 15:55:00
11:15 AM,75.2,54.7,49,30.14,10.0,SE,5.8,-,N/A,,Clear,140,2013-09-27 16:15:00
11:35 AM,75.7,51.6,43,30.13,10.0,South,10.4,-,N/A,,Clear,170,2013-09-27 16:35:00
11:55 AM,76.8,51.3,41,30.12,10.0,SE,13.8,-,N/A,,Clear,140,2013-09-27 16:55:00
12:15 PM,77.9,50.4,38,30.12,10.0,SSE,11.5,-,N/A,,Clear,160,2013-09-27 17:15:00
12:35 PM,78.1,50.4,38,30.11,10.0,SE,10.4,-,N/A,,Clear,140,2013-09-27 17:35:00
12:55 PM,79.2,50.7,37,30.11,10.0,ESE,9.2,-,N/A,,Clear,120,2013-09-27 17:55:00
1:15 PM,80.2,49.6,34,30.10,10.0,SE,12.7,17.3,N/A,,Clear,140,2013-09-27 18:15:00
1:35 PM,80.2,49.8,34,30.09,10.0,SSE,10.4,-,N/A,,Clear,150,2013-09-27 18:35:00
1:55 PM,80.2,49.6,34,30.08,10.0,ESE,12.7,17.3,N/A,,Clear,120,2013-09-27 18:55:00
2:15 PM,81.0,49.1,33,30.08,10.0,SE,9.2,16.1,N/A,,Clear,130,2013-09-27 19:15:00
2:35 PM,81.5,49.1,32,30.07,10.0,ESE,11.5,-,N/A,,Clear,120,2013-09-27 19:35:00
2:55 PM,82.2,49.1,31,30.06,10.0,SE,9.2,16.1,N/A,,Clear,140,2013-09-27 19:55:00
3:15 PM,82.4,48.4,30,30.06,10.0,ESE,9.2,17.3,N/A,,Clear,120,2013-09-27 20:15:00
3:35 PM,82.8,48.4,30,30.05,10.0,SE,11.5,18.4,N/A,,Clear,140,2013-09-27 20:35:00
3:55 PM,82.4,48.0,30,30.05,10.0,SE,11.5,-,N/A,,Clear,140,2013-09-27 20:55:00
4:15 PM,82.8,47.8,29,30.04,10.0,SE,13.8,19.6,N/A,,Clear,140,2013-09-27 21:15:00
4:35 PM,82.4,46.8,29,30.04,10.0,SE,10.4,-,N/A,,Clear,140,2013-09-27 21:35:00
4:55 PM,81.9,46.9,29,30.04,10.0,SE,9.2,-,N/A,,Clear,130,2013-09-27 21:55:00
5:15 PM,81.5,46.6,29,30.04,10.0,SE,10.4,-,N/A,,Clear,140,2013-09-27 22:15:00
5:35 PM,80.8,46.8,30,30.03,10.0,SE,9.2,-,N/A,,Clear,130,2013-09-27 22:35:00
5:55 PM,80.2,47.7,32,30.03,10.0,SE,6.9,-,N/A,,Clear,130,2013-09-27 22:55:00
6:15 PM,77.9,47.3,34,30.03,10.0,SE,6.9,-,N/A,,Clear,130,2013-09-27 23:15:00
6:35 PM,76.3,47.3,36,30.03,10.0,SE,6.9,-,N/A,,Clear,140,2013-09-27 23:35:00
6:55 PM,75.2,47.5,37,30.03,10.0,SE,6.9,-,N/A,,Clear,130,2013-09-27 23:55:00
7:15 PM,75.2,48.2,38,30.04,10.0,SE,5.8,-,N/A,,Clear,140,2013-09-28 00:15:00
7:35 PM,72.1,48.6,43,30.04,10.0,SE,5.8,-,N/A,,Clear,130,2013-09-28 00:35:00
7:55 PM,71.4,48.7,45,30.04,10.0,SE,9.2,-,N/A,,Clear,140,2013-09-28 00:55:00
8:15 PM,68.9,49.3,50,30.05,10.0,SE,8.1,-,N/A,,Clear,140,2013-09-28 01:15:00
8:35 PM,68.7,49.3,50,30.05,10.0,SE,9.2,-,N/A,,Clear,140,2013-09-28 01:35:00
8:55 PM,68.7,49.3,50,30.06,10.0,SSE,9.2,-,N/A,,Clear,150,2013-09-28 01:55:00
9:15 PM,68.4,49.3,50,30.06,10.0,SSE,10.4,-,N/A,,Clear,150,2013-09-28 02:15:00
9:35 PM,68.9,49.5,50,30.06,10.0,SSE,10.4,-,N/A,,Clear,150,2013-09-28 02:35:00
9:55 PM,68.5,50.0,52,30.06,10.0,SSE,10.4,-,N/A,,Clear,150,2013-09-28 02:55:00
10:15 PM,68.2,50.4,53,30.06,10.0,SSE,9.2,-,N/A,,Clear,150,2013-09-28 03:15:00
10:35 PM,68.0,50.4,53,30.06,10.0,SSE,10.4,-,N/A,,Clear,150,2013-09-28 03:35:00
10:55 PM,66.7,50.5,56,30.06,10.0,SSE,9.2,-,N/A,,Clear,150,2013-09-28 03:55:00
11:15 PM,64.6,50.9,61,30.05,10.0,SSE,8.1,-,N/A,,Clear,150,2013-09-28 04:15:00
11:35 PM,63.9,50.7,62,30.06,10.0,SSE,9.2,-,N/A,,Clear,150,2013-09-28 04:35:00
11:55 PM,62.8,50.9,65,30.05,10.0,SSE,10.4,-,N/A,,Clear,150,2013-09-28 04:55:00